sensor_id;sensor_type;location;lat;lon;timestamp;temperature;humidity
18160;DHT22;9205;52.032;4.314;2023-05-23T00:02:17;13.60;99.90
18160;DHT22;9205;52.032;4.314;2023-05-23T00:04:44;13.80;99.90
18160;DHT22;9205;52.032;4.314;2023-05-23T00:07:11;13.70;99.90
18160;DHT22;9205;52.032;4.314;2023-05-23T00:09:38;13.70;99.90
18160;DHT22;9205;52.032;4.314;2023-05-23T00:12:06;13.80;99.90
18160;DHT22;9205;52.032;4.314;2023-05-23T00:14:35;13.70;99.90
18160;DHT22;9205;52.032;4.314;2023-05-23T00:17:04;13.80;99.90
18160;DHT22;9205;52.032;4.314;2023-05-23T00:19:32;13.80;99.90
18160;DHT22;9205;52.032;4.314;2023-05-23T00:22:00;13.80;99.90
18160;DHT22;9205;52.032;4.314;2023-05-23T00:24:28;13.70;99.90
18160;DHT22;9205;52.032;4.314;2023-05-23T00:26:55;13.80;99.90
18160;DHT22;9205;52.032;4.314;2023-05-23T00:29:23;13.90;99.90
18160;DHT22;9205;52.032;4.314;2023-05-23T00:31:52;13.90;99.90
18160;DHT22;9205;52.032;4.314;2023-05-23T00:34:19;13.90;99.90
18160;DHT22;9205;52.032;4.314;2023-05-23T00:36:46;13.80;99.90
18160;DHT22;9205;52.032;4.314;2023-05-23T00:39:15;13.70;99.90
18160;DHT22;9205;52.032;4.314;2023-05-23T00:41:45;13.80;99.90
18160;DHT22;9205;52.032;4.314;2023-05-23T00:44:12;13.80;99.90
18160;DHT22;9205;52.032;4.314;2023-05-23T00:46:41;13.80;99.90
18160;DHT22;9205;52.032;4.314;2023-05-23T00:49:11;13.80;99.90
18160;DHT22;9205;52.032;4.314;2023-05-23T00:51:39;13.80;99.90
18160;DHT22;9205;52.032;4.314;2023-05-23T00:54:08;13.90;99.90
18160;DHT22;9205;52.032;4.314;2023-05-23T00:56:36;13.90;99.90
18160;DHT22;9205;52.032;4.314;2023-05-23T00:59:04;13.90;99.90
18160;DHT22;9205;52.032;4.314;2023-05-23T01:01:33;14.00;99.90
18160;DHT22;9205;52.032;4.314;2023-05-23T01:04:01;14.00;99.90
18160;DHT22;9205;52.032;4.314;2023-05-23T01:06:30;13.90;99.90
18160;DHT22;9205;52.032;4.314;2023-05-23T01:08:58;13.90;99.90
18160;DHT22;9205;52.032;4.314;2023-05-23T01:11:32;13.90;99.90
18160;DHT22;9205;52.032;4.314;2023-05-23T01:14:08;13.80;99.90
18160;DHT22;9205;52.032;4.314;2023-05-23T01:16:44;13.80;99.90
18160;DHT22;9205;52.032;4.314;2023-05-23T01:19:30;13.80;99.90
18160;DHT22;9205;52.032;4.314;2023-05-23T01:22:22;13.80;99.90
18160;DHT22;9205;52.032;4.314;2023-05-23T01:25:07;13.70;99.90
18160;DHT22;9205;52.032;4.314;2023-05-23T01:27:53;13.80;99.90
18160;DHT22;9205;52.032;4.314;2023-05-23T01:30:24;13.60;99.90
18160;DHT22;9205;52.032;4.314;2023-05-23T01:32:57;13.70;99.90
18160;DHT22;9205;52.032;4.314;2023-05-23T01:35:26;13.80;99.90
18160;DHT22;9205;52.032;4.314;2023-05-23T01:37:54;13.70;99.90
18160;DHT22;9205;52.032;4.314;2023-05-23T01:40:24;13.80;99.90
18160;DHT22;9205;52.032;4.314;2023-05-23T01:42:54;13.80;99.90
18160;DHT22;9205;52.032;4.314;2023-05-23T01:45:24;13.80;99.90
18160;DHT22;9205;52.032;4.314;2023-05-23T01:47:53;13.80;99.90
18160;DHT22;9205;52.032;4.314;2023-05-23T01:50:22;13.90;99.90
18160;DHT22;9205;52.032;4.314;2023-05-23T01:52:50;13.70;99.90
18160;DHT22;9205;52.032;4.314;2023-05-23T01:55:19;13.70;99.90
18160;DHT22;9205;52.032;4.314;2023-05-23T01:57:50;13.90;99.90
18160;DHT22;9205;52.032;4.314;2023-05-23T02:00:21;13.70;99.90
18160;DHT22;9205;52.032;4.314;2023-05-23T02:02:49;13.90;99.90
18160;DHT22;9205;52.032;4.314;2023-05-23T02:05:16;13.70;99.90
18160;DHT22;9205;52.032;4.314;2023-05-23T02:07:44;13.70;98.80
18160;DHT22;9205;52.032;4.314;2023-05-23T02:10:11;13.60;99.90
18160;DHT22;9205;52.032;4.314;2023-05-23T02:12:39;13.60;99.90
18160;DHT22;9205;52.032;4.314;2023-05-23T02:15:07;13.70;91.20
18160;DHT22;9205;52.032;4.314;2023-05-23T02:17:36;13.60;90.00
18160;DHT22;9205;52.032;4.314;2023-05-23T02:20:07;13.50;95.00
18160;DHT22;9205;52.032;4.314;2023-05-23T02:22:35;13.50;94.50
18160;DHT22;9205;52.032;4.314;2023-05-23T02:25:03;13.50;91.90
18160;DHT22;9205;52.032;4.314;2023-05-23T02:27:31;13.50;92.50
18160;DHT22;9205;52.032;4.314;2023-05-23T02:29:59;13.60;95.10
18160;DHT22;9205;52.032;4.314;2023-05-23T02:32:26;13.60;97.70
18160;DHT22;9205;52.032;4.314;2023-05-23T02:34:56;13.50;98.50
18160;DHT22;9205;52.032;4.314;2023-05-23T02:37:24;13.60;98.60
18160;DHT22;9205;52.032;4.314;2023-05-23T02:39:52;13.50;99.90
18160;DHT22;9205;52.032;4.314;2023-05-23T02:42:20;13.50;99.90
18160;DHT22;9205;52.032;4.314;2023-05-23T02:44:48;13.50;99.90
18160;DHT22;9205;52.032;4.314;2023-05-23T02:47:15;13.60;99.90
18160;DHT22;9205;52.032;4.314;2023-05-23T02:49:42;13.60;99.90
18160;DHT22;9205;52.032;4.314;2023-05-23T02:52:13;13.60;99.90
18160;DHT22;9205;52.032;4.314;2023-05-23T02:54:40;13.60;99.90
18160;DHT22;9205;52.032;4.314;2023-05-23T02:57:07;13.50;99.90
18160;DHT22;9205;52.032;4.314;2023-05-23T02:59:37;13.40;99.90
18160;DHT22;9205;52.032;4.314;2023-05-23T03:02:04;13.40;99.90
18160;DHT22;9205;52.032;4.314;2023-05-23T03:04:32;13.40;99.90
18160;DHT22;9205;52.032;4.314;2023-05-23T03:06:59;13.40;99.90
18160;DHT22;9205;52.032;4.314;2023-05-23T03:09:28;13.50;99.90
18160;DHT22;9205;52.032;4.314;2023-05-23T03:11:55;13.50;99.90
18160;DHT22;9205;52.032;4.314;2023-05-23T03:14:22;13.50;77.90
18160;DHT22;9205;52.032;4.314;2023-05-23T03:16:49;13.40;54.60
18160;DHT22;9205;52.032;4.314;2023-05-23T03:19:16;13.30;23.30
18160;DHT22;9205;52.032;4.314;2023-05-23T03:21:44;13.20;13.80
18160;DHT22;9205;52.032;4.314;2023-05-23T03:24:11;13.30;10.50
18160;DHT22;9205;52.032;4.314;2023-05-23T03:26:39;13.30;1.00
18160;DHT22;9205;52.032;4.314;2023-05-23T03:29:06;13.20;1.00
18160;DHT22;9205;52.032;4.314;2023-05-23T03:31:35;13.20;1.00
18160;DHT22;9205;52.032;4.314;2023-05-23T03:34:02;13.30;1.00
18160;DHT22;9205;52.032;4.314;2023-05-23T03:36:31;13.20;1.00
18160;DHT22;9205;52.032;4.314;2023-05-23T03:38:59;13.30;1.00
18160;DHT22;9205;52.032;4.314;2023-05-23T03:41:26;13.30;1.00
18160;DHT22;9205;52.032;4.314;2023-05-23T03:43:55;13.30;1.00
18160;DHT22;9205;52.032;4.314;2023-05-23T03:46:23;13.20;1.00
18160;DHT22;9205;52.032;4.314;2023-05-23T03:48:51;13.10;1.00
18160;DHT22;9205;52.032;4.314;2023-05-23T03:51:19;13.00;1.00
18160;DHT22;9205;52.032;4.314;2023-05-23T03:53:47;13.00;1.00
18160;DHT22;9205;52.032;4.314;2023-05-23T03:56:14;12.90;1.00
18160;DHT22;9205;52.032;4.314;2023-05-23T03:58:42;12.90;1.00
18160;DHT22;9205;52.032;4.314;2023-05-23T04:01:13;12.90;1.00
18160;DHT22;9205;52.032;4.314;2023-05-23T04:03:41;12.90;1.00
18160;DHT22;9205;52.032;4.314;2023-05-23T04:06:08;12.90;1.00
18160;DHT22;9205;52.032;4.314;2023-05-23T04:08:38;13.00;1.00
18160;DHT22;9205;52.032;4.314;2023-05-23T04:11:06;13.00;1.00
18160;DHT22;9205;52.032;4.314;2023-05-23T04:13:36;13.10;1.00
18160;DHT22;9205;52.032;4.314;2023-05-23T04:16:04;13.00;1.00
18160;DHT22;9205;52.032;4.314;2023-05-23T04:18:33;12.90;1.00
18160;DHT22;9205;52.032;4.314;2023-05-23T04:21:00;13.00;1.00
18160;DHT22;9205;52.032;4.314;2023-05-23T04:23:29;12.90;1.00
18160;DHT22;9205;52.032;4.314;2023-05-23T04:25:56;13.00;1.00
18160;DHT22;9205;52.032;4.314;2023-05-23T04:28:26;13.00;1.00
18160;DHT22;9205;52.032;4.314;2023-05-23T04:30:53;12.90;1.00
18160;DHT22;9205;52.032;4.314;2023-05-23T04:33:25;13.00;1.00
18160;DHT22;9205;52.032;4.314;2023-05-23T04:35:54;13.00;1.00
18160;DHT22;9205;52.032;4.314;2023-05-23T04:38:22;13.00;1.00
18160;DHT22;9205;52.032;4.314;2023-05-23T04:40:50;13.00;1.00
18160;DHT22;9205;52.032;4.314;2023-05-23T04:43:37;13.00;1.00
18160;DHT22;9205;52.032;4.314;2023-05-23T04:46:45;12.80;1.00
18160;DHT22;9205;52.032;4.314;2023-05-23T04:49:22;12.80;1.00
18160;DHT22;9205;52.032;4.314;2023-05-23T04:51:51;12.70;1.00
18160;DHT22;9205;52.032;4.314;2023-05-23T04:54:29;12.80;1.00
18160;DHT22;9205;52.032;4.314;2023-05-23T04:57:00;12.80;1.00
18160;DHT22;9205;52.032;4.314;2023-05-23T04:59:28;12.80;1.00
18160;DHT22;9205;52.032;4.314;2023-05-23T05:01:56;12.80;1.00
18160;DHT22;9205;52.032;4.314;2023-05-23T05:04:24;12.90;1.00
18160;DHT22;9205;52.032;4.314;2023-05-23T05:06:52;12.80;1.00
18160;DHT22;9205;52.032;4.314;2023-05-23T05:09:19;12.80;1.00
18160;DHT22;9205;52.032;4.314;2023-05-23T05:11:48;12.80;1.00
18160;DHT22;9205;52.032;4.314;2023-05-23T05:14:15;12.80;1.00
18160;DHT22;9205;52.032;4.314;2023-05-23T05:16:43;12.90;1.00
18160;DHT22;9205;52.032;4.314;2023-05-23T05:19:11;12.80;1.00
18160;DHT22;9205;52.032;4.314;2023-05-23T05:21:38;12.90;1.00
18160;DHT22;9205;52.032;4.314;2023-05-23T05:24:07;12.80;1.00
18160;DHT22;9205;52.032;4.314;2023-05-23T05:26:35;12.70;1.00
18160;DHT22;9205;52.032;4.314;2023-05-23T05:29:03;12.80;1.00
18160;DHT22;9205;52.032;4.314;2023-05-23T05:31:31;12.80;1.00
18160;DHT22;9205;52.032;4.314;2023-05-23T05:34:00;12.70;1.00
18160;DHT22;9205;52.032;4.314;2023-05-23T05:36:27;12.80;1.00
18160;DHT22;9205;52.032;4.314;2023-05-23T05:38:54;12.80;1.00
18160;DHT22;9205;52.032;4.314;2023-05-23T05:41:23;12.80;1.00
18160;DHT22;9205;52.032;4.314;2023-05-23T05:43:52;12.80;1.00
18160;DHT22;9205;52.032;4.314;2023-05-23T05:46:20;12.90;1.00
18160;DHT22;9205;52.032;4.314;2023-05-23T05:48:48;12.90;1.00
18160;DHT22;9205;52.032;4.314;2023-05-23T05:51:17;12.90;1.00
18160;DHT22;9205;52.032;4.314;2023-05-23T05:53:44;12.80;1.00
18160;DHT22;9205;52.032;4.314;2023-05-23T05:56:11;12.80;1.00
18160;DHT22;9205;52.032;4.314;2023-05-23T05:58:40;12.80;1.00
18160;DHT22;9205;52.032;4.314;2023-05-23T06:01:10;12.70;1.00
18160;DHT22;9205;52.032;4.314;2023-05-23T06:03:37;12.80;1.00
18160;DHT22;9205;52.032;4.314;2023-05-23T06:06:04;12.80;1.00
18160;DHT22;9205;52.032;4.314;2023-05-23T06:08:33;12.70;1.00
18160;DHT22;9205;52.032;4.314;2023-05-23T06:11:00;12.80;1.00
18160;DHT22;9205;52.032;4.314;2023-05-23T06:13:27;12.80;1.00
18160;DHT22;9205;52.032;4.314;2023-05-23T06:15:56;12.60;1.00
18160;DHT22;9205;52.032;4.314;2023-05-23T06:18:23;12.60;1.00
18160;DHT22;9205;52.032;4.314;2023-05-23T06:20:51;12.70;1.00
18160;DHT22;9205;52.032;4.314;2023-05-23T06:23:20;12.60;1.00
18160;DHT22;9205;52.032;4.314;2023-05-23T06:25:47;12.50;1.00
18160;DHT22;9205;52.032;4.314;2023-05-23T06:28:15;12.50;1.00
18160;DHT22;9205;52.032;4.314;2023-05-23T06:30:44;12.60;1.00
18160;DHT22;9205;52.032;4.314;2023-05-23T06:33:13;12.60;1.00
18160;DHT22;9205;52.032;4.314;2023-05-23T06:35:42;12.80;1.00
18160;DHT22;9205;52.032;4.314;2023-05-23T06:38:09;12.70;1.00
18160;DHT22;9205;52.032;4.314;2023-05-23T06:40:36;12.80;1.00
18160;DHT22;9205;52.032;4.314;2023-05-23T06:43:03;12.80;1.00
18160;DHT22;9205;52.032;4.314;2023-05-23T06:45:53;12.90;1.00
18160;DHT22;9205;52.032;4.314;2023-05-23T06:48:22;12.70;1.00
18160;DHT22;9205;52.032;4.314;2023-05-23T06:50:50;12.80;1.00
18160;DHT22;9205;52.032;4.314;2023-05-23T06:53:18;12.90;1.00
18160;DHT22;9205;52.032;4.314;2023-05-23T06:55:47;13.00;1.00
18160;DHT22;9205;52.032;4.314;2023-05-23T06:58:17;13.00;1.00
18160;DHT22;9205;52.032;4.314;2023-05-23T07:00:45;13.00;1.00
18160;DHT22;9205;52.032;4.314;2023-05-23T07:03:19;13.00;1.00
18160;DHT22;9205;52.032;4.314;2023-05-23T07:05:47;13.00;1.00
18160;DHT22;9205;52.032;4.314;2023-05-23T07:08:17;13.00;1.00
18160;DHT22;9205;52.032;4.314;2023-05-23T07:11:00;13.10;1.00
18160;DHT22;9205;52.032;4.314;2023-05-23T07:13:31;13.20;1.00
18160;DHT22;9205;52.032;4.314;2023-05-23T07:15:59;13.30;1.00
18160;DHT22;9205;52.032;4.314;2023-05-23T07:18:26;13.30;1.00
18160;DHT22;9205;52.032;4.314;2023-05-23T07:20:57;13.30;1.00
18160;DHT22;9205;52.032;4.314;2023-05-23T07:23:24;13.40;1.00
18160;DHT22;9205;52.032;4.314;2023-05-23T07:25:52;13.40;99.90
18160;DHT22;9205;52.032;4.314;2023-05-23T07:28:24;13.50;1.00
18160;DHT22;9205;52.032;4.314;2023-05-23T07:30:54;13.60;99.90
18160;DHT22;9205;52.032;4.314;2023-05-23T07:33:23;13.60;99.90
18160;DHT22;9205;52.032;4.314;2023-05-23T07:35:52;13.60;99.90
18160;DHT22;9205;52.032;4.314;2023-05-23T07:38:20;13.80;99.90
18160;DHT22;9205;52.032;4.314;2023-05-23T07:40:47;13.70;99.90
18160;DHT22;9205;52.032;4.314;2023-05-23T07:43:15;13.80;99.90
18160;DHT22;9205;52.032;4.314;2023-05-23T07:45:42;13.70;99.90
18160;DHT22;9205;52.032;4.314;2023-05-23T07:48:09;13.70;99.90
18160;DHT22;9205;52.032;4.314;2023-05-23T07:50:38;13.60;99.90
18160;DHT22;9205;52.032;4.314;2023-05-23T07:53:06;13.50;99.90
18160;DHT22;9205;52.032;4.314;2023-05-23T07:55:36;13.60;99.90
18160;DHT22;9205;52.032;4.314;2023-05-23T07:58:03;13.50;95.20
18160;DHT22;9205;52.032;4.314;2023-05-23T08:00:31;13.50;99.90
18160;DHT22;9205;52.032;4.314;2023-05-23T08:03:07;13.70;99.90
18160;DHT22;9205;52.032;4.314;2023-05-23T08:05:41;13.70;99.90
18160;DHT22;9205;52.032;4.314;2023-05-23T08:08:09;13.70;99.90
18160;DHT22;9205;52.032;4.314;2023-05-23T08:10:38;13.70;99.90
18160;DHT22;9205;52.032;4.314;2023-05-23T08:13:09;13.80;99.90
18160;DHT22;9205;52.032;4.314;2023-05-23T08:15:48;13.80;99.90
18160;DHT22;9205;52.032;4.314;2023-05-23T08:18:22;13.90;99.90
18160;DHT22;9205;52.032;4.314;2023-05-23T08:20:49;14.00;99.90
18160;DHT22;9205;52.032;4.314;2023-05-23T08:23:18;14.00;14.00
18160;DHT22;9205;52.032;4.314;2023-05-23T08:25:47;14.00;1.00
18160;DHT22;9205;52.032;4.314;2023-05-23T08:28:14;14.10;5.80
18160;DHT22;9205;52.032;4.314;2023-05-23T08:30:48;14.00;1.00
18160;DHT22;9205;52.032;4.314;2023-05-23T08:33:16;14.10;31.20
18160;DHT22;9205;52.032;4.314;2023-05-23T08:35:45;14.10;1.00
18160;DHT22;9205;52.032;4.314;2023-05-23T08:38:14;14.00;1.00
18160;DHT22;9205;52.032;4.314;2023-05-23T08:40:55;14.00;1.00
18160;DHT22;9205;52.032;4.314;2023-05-23T08:43:29;14.20;1.00
18160;DHT22;9205;52.032;4.314;2023-05-23T08:45:56;14.40;1.00
18160;DHT22;9205;52.032;4.314;2023-05-23T08:48:25;14.50;1.00
18160;DHT22;9205;52.032;4.314;2023-05-23T08:50:54;14.50;1.00
18160;DHT22;9205;52.032;4.314;2023-05-23T08:53:25;14.40;1.00
18160;DHT22;9205;52.032;4.314;2023-05-23T08:56:03;14.30;1.00
18160;DHT22;9205;52.032;4.314;2023-05-23T08:58:40;14.00;1.00
18160;DHT22;9205;52.032;4.314;2023-05-23T09:01:09;14.00;1.00
18160;DHT22;9205;52.032;4.314;2023-05-23T09:03:37;14.10;1.00
18160;DHT22;9205;52.032;4.314;2023-05-23T09:06:20;14.20;1.00
18160;DHT22;9205;52.032;4.314;2023-05-23T09:08:47;14.30;1.00
18160;DHT22;9205;52.032;4.314;2023-05-23T09:11:19;14.20;1.00
18160;DHT22;9205;52.032;4.314;2023-05-23T09:13:49;14.40;1.00
18160;DHT22;9205;52.032;4.314;2023-05-23T09:16:18;14.40;1.00
18160;DHT22;9205;52.032;4.314;2023-05-23T09:18:53;14.40;1.00
18160;DHT22;9205;52.032;4.314;2023-05-23T09:21:23;14.30;1.00
18160;DHT22;9205;52.032;4.314;2023-05-23T09:24:11;14.50;1.00
18160;DHT22;9205;52.032;4.314;2023-05-23T09:26:39;14.50;1.00
18160;DHT22;9205;52.032;4.314;2023-05-23T09:29:07;14.40;1.00
18160;DHT22;9205;52.032;4.314;2023-05-23T09:31:34;14.40;1.00
18160;DHT22;9205;52.032;4.314;2023-05-23T09:34:02;14.40;1.00
18160;DHT22;9205;52.032;4.314;2023-05-23T09:36:31;14.70;1.00
18160;DHT22;9205;52.032;4.314;2023-05-23T09:39:02;14.70;1.00
18160;DHT22;9205;52.032;4.314;2023-05-23T09:41:32;14.50;1.00
18160;DHT22;9205;52.032;4.314;2023-05-23T09:44:06;14.50;1.00
18160;DHT22;9205;52.032;4.314;2023-05-23T09:46:35;14.40;99.90
18160;DHT22;9205;52.032;4.314;2023-05-23T09:49:14;14.40;1.00
18160;DHT22;9205;52.032;4.314;2023-05-23T09:51:56;14.50;1.00
18160;DHT22;9205;52.032;4.314;2023-05-23T09:54:23;14.50;99.90
18160;DHT22;9205;52.032;4.314;2023-05-23T09:56:52;14.40;99.90
18160;DHT22;9205;52.032;4.314;2023-05-23T09:59:22;14.50;99.90
18160;DHT22;9205;52.032;4.314;2023-05-23T10:01:56;14.50;99.90
18160;DHT22;9205;52.032;4.314;2023-05-23T10:04:24;14.40;99.90
18160;DHT22;9205;52.032;4.314;2023-05-23T10:06:56;14.40;99.90
18160;DHT22;9205;52.032;4.314;2023-05-23T10:09:33;14.30;55.50
18160;DHT22;9205;52.032;4.314;2023-05-23T10:15:15;14.80;99.90
18160;DHT22;9205;52.032;4.314;2023-05-23T10:17:54;14.70;1.00
18160;DHT22;9205;52.032;4.314;2023-05-23T10:20:29;14.70;1.00
18160;DHT22;9205;52.032;4.314;2023-05-23T10:22:59;14.70;1.00
18160;DHT22;9205;52.032;4.314;2023-05-23T10:25:27;14.60;1.00
18160;DHT22;9205;52.032;4.314;2023-05-23T10:27:56;14.60;1.00
18160;DHT22;9205;52.032;4.314;2023-05-23T10:30:27;14.70;1.00
18160;DHT22;9205;52.032;4.314;2023-05-23T10:32:55;14.70;1.00
18160;DHT22;9205;52.032;4.314;2023-05-23T10:35:31;14.90;1.00
18160;DHT22;9205;52.032;4.314;2023-05-23T10:38:13;14.90;1.00
18160;DHT22;9205;52.032;4.314;2023-05-23T10:40:57;14.80;1.00
18160;DHT22;9205;52.032;4.314;2023-05-23T10:43:39;14.70;1.00
18160;DHT22;9205;52.032;4.314;2023-05-23T10:46:14;14.80;99.90
18160;DHT22;9205;52.032;4.314;2023-05-23T10:48:42;14.90;99.90
18160;DHT22;9205;52.032;4.314;2023-05-23T10:51:11;15.00;99.90
18160;DHT22;9205;52.032;4.314;2023-05-23T10:53:41;14.90;1.00
18160;DHT22;9205;52.032;4.314;2023-05-23T10:56:10;14.80;1.00
18160;DHT22;9205;52.032;4.314;2023-05-23T10:58:50;15.00;1.00
18160;DHT22;9205;52.032;4.314;2023-05-23T11:01:20;15.20;1.00
18160;DHT22;9205;52.032;4.314;2023-05-23T11:03:49;15.30;1.00
18160;DHT22;9205;52.032;4.314;2023-05-23T11:06:36;15.30;1.00
18160;DHT22;9205;52.032;4.314;2023-05-23T11:09:09;15.30;1.00
18160;DHT22;9205;52.032;4.314;2023-05-23T11:11:59;15.30;56.00
18160;DHT22;9205;52.032;4.314;2023-05-23T11:14:33;15.40;19.70
18160;DHT22;9205;52.032;4.314;2023-05-23T11:17:28;15.40;1.00
18160;DHT22;9205;52.032;4.314;2023-05-23T11:19:58;15.70;99.90
18160;DHT22;9205;52.032;4.314;2023-05-23T11:22:30;15.70;10.30
18160;DHT22;9205;52.032;4.314;2023-05-23T11:24:59;15.80;99.90
18160;DHT22;9205;52.032;4.314;2023-05-23T11:27:34;15.90;99.90
18160;DHT22;9205;52.032;4.314;2023-05-23T11:30:06;15.70;99.90
18160;DHT22;9205;52.032;4.314;2023-05-23T11:32:36;15.90;99.90
18160;DHT22;9205;52.032;4.314;2023-05-23T11:35:05;16.00;99.90
18160;DHT22;9205;52.032;4.314;2023-05-23T11:37:34;15.80;1.00
18160;DHT22;9205;52.032;4.314;2023-05-23T11:40:26;15.80;1.00
18160;DHT22;9205;52.032;4.314;2023-05-23T11:42:55;15.70;1.00
18160;DHT22;9205;52.032;4.314;2023-05-23T11:45:23;15.70;1.00
18160;DHT22;9205;52.032;4.314;2023-05-23T11:47:52;15.50;99.90
18160;DHT22;9205;52.032;4.314;2023-05-23T11:50:20;15.90;1.00
18160;DHT22;9205;52.032;4.314;2023-05-23T11:52:49;16.10;1.00
18160;DHT22;9205;52.032;4.314;2023-05-23T11:55:18;16.00;1.00
18160;DHT22;9205;52.032;4.314;2023-05-23T11:57:45;16.20;1.00
18160;DHT22;9205;52.032;4.314;2023-05-23T12:00:14;16.10;1.00
18160;DHT22;9205;52.032;4.314;2023-05-23T12:02:43;16.10;1.00
18160;DHT22;9205;52.032;4.314;2023-05-23T12:05:13;15.80;1.00
18160;DHT22;9205;52.032;4.314;2023-05-23T12:07:41;16.00;1.00
18160;DHT22;9205;52.032;4.314;2023-05-23T12:10:10;16.10;1.00
18160;DHT22;9205;52.032;4.314;2023-05-23T12:12:37;16.10;1.00
18160;DHT22;9205;52.032;4.314;2023-05-23T12:15:07;16.50;1.00
18160;DHT22;9205;52.032;4.314;2023-05-23T12:17:35;16.70;1.00
18160;DHT22;9205;52.032;4.314;2023-05-23T12:20:04;16.90;1.00
18160;DHT22;9205;52.032;4.314;2023-05-23T12:22:34;17.00;1.00
18160;DHT22;9205;52.032;4.314;2023-05-23T12:25:01;17.10;1.00
18160;DHT22;9205;52.032;4.314;2023-05-23T12:27:34;16.80;99.90
18160;DHT22;9205;52.032;4.314;2023-05-23T12:30:07;16.70;99.90
18160;DHT22;9205;52.032;4.314;2023-05-23T12:32:38;16.50;99.90
18160;DHT22;9205;52.032;4.314;2023-05-23T12:35:08;16.30;11.70
18160;DHT22;9205;52.032;4.314;2023-05-23T12:37:40;16.40;97.80
18160;DHT22;9205;52.032;4.314;2023-05-23T12:40:15;16.30;1.00
18160;DHT22;9205;52.032;4.314;2023-05-23T12:42:45;16.50;1.00
18160;DHT22;9205;52.032;4.314;2023-05-23T12:45:16;17.00;1.00
18160;DHT22;9205;52.032;4.314;2023-05-23T12:47:43;17.00;1.00
18160;DHT22;9205;52.032;4.314;2023-05-23T12:50:11;17.20;1.00
18160;DHT22;9205;52.032;4.314;2023-05-23T12:52:39;17.40;1.00
18160;DHT22;9205;52.032;4.314;2023-05-23T12:55:08;17.10;1.00
18160;DHT22;9205;52.032;4.314;2023-05-23T12:57:41;16.90;1.00
18160;DHT22;9205;52.032;4.314;2023-05-23T13:00:09;16.90;1.00
18160;DHT22;9205;52.032;4.314;2023-05-23T13:02:37;16.70;1.00
18160;DHT22;9205;52.032;4.314;2023-05-23T13:05:05;16.10;1.00
18160;DHT22;9205;52.032;4.314;2023-05-23T13:07:32;16.20;1.00
18160;DHT22;9205;52.032;4.314;2023-05-23T13:10:01;16.20;1.00
18160;DHT22;9205;52.032;4.314;2023-05-23T13:12:29;16.60;1.00
18160;DHT22;9205;52.032;4.314;2023-05-23T13:14:57;16.40;1.00
18160;DHT22;9205;52.032;4.314;2023-05-23T13:17:25;16.60;1.00
18160;DHT22;9205;52.032;4.314;2023-05-23T13:19:52;16.80;99.90
18160;DHT22;9205;52.032;4.314;2023-05-23T13:22:20;16.70;99.90
18160;DHT22;9205;52.032;4.314;2023-05-23T13:24:47;16.30;66.10
18160;DHT22;9205;52.032;4.314;2023-05-23T13:27:17;16.50;99.90
18160;DHT22;9205;52.032;4.314;2023-05-23T13:29:44;16.30;99.90
18160;DHT22;9205;52.032;4.314;2023-05-23T13:32:11;16.50;99.90
18160;DHT22;9205;52.032;4.314;2023-05-23T13:34:40;16.80;99.90
18160;DHT22;9205;52.032;4.314;2023-05-23T13:37:08;16.80;99.90
18160;DHT22;9205;52.032;4.314;2023-05-23T13:39:35;16.70;99.90
18160;DHT22;9205;52.032;4.314;2023-05-23T13:42:02;16.60;99.90
18160;DHT22;9205;52.032;4.314;2023-05-23T13:44:31;16.20;99.90
18160;DHT22;9205;52.032;4.314;2023-05-23T13:47:08;16.60;99.90
18160;DHT22;9205;52.032;4.314;2023-05-23T13:49:36;16.90;99.90
18160;DHT22;9205;52.032;4.314;2023-05-23T13:52:04;16.70;99.90
18160;DHT22;9205;52.032;4.314;2023-05-23T13:54:31;16.90;99.90
18160;DHT22;9205;52.032;4.314;2023-05-23T13:56:59;16.80;99.90
18160;DHT22;9205;52.032;4.314;2023-05-23T13:59:27;16.90;4.00
18160;DHT22;9205;52.032;4.314;2023-05-23T14:01:56;16.60;1.00
18160;DHT22;9205;52.032;4.314;2023-05-23T14:04:23;16.70;1.00
18160;DHT22;9205;52.032;4.314;2023-05-23T14:06:51;16.60;6.50
18160;DHT22;9205;52.032;4.314;2023-05-23T14:09:18;16.10;1.00
18160;DHT22;9205;52.032;4.314;2023-05-23T14:11:46;16.10;99.90
18160;DHT22;9205;52.032;4.314;2023-05-23T14:14:13;15.60;10.90
18160;DHT22;9205;52.032;4.314;2023-05-23T14:16:41;15.60;99.90
18160;DHT22;9205;52.032;4.314;2023-05-23T14:19:09;15.60;99.90
18160;DHT22;9205;52.032;4.314;2023-05-23T14:21:37;15.60;99.90
18160;DHT22;9205;52.032;4.314;2023-05-23T14:24:04;16.10;99.90
18160;DHT22;9205;52.032;4.314;2023-05-23T14:26:32;16.10;99.90
18160;DHT22;9205;52.032;4.314;2023-05-23T14:28:59;16.30;62.80
18160;DHT22;9205;52.032;4.314;2023-05-23T14:31:26;16.60;99.90
18160;DHT22;9205;52.032;4.314;2023-05-23T14:33:53;16.90;99.90
18160;DHT22;9205;52.032;4.314;2023-05-23T14:36:23;16.60;1.00
18160;DHT22;9205;52.032;4.314;2023-05-23T14:38:50;16.70;1.00
18160;DHT22;9205;52.032;4.314;2023-05-23T14:41:18;16.60;1.00
18160;DHT22;9205;52.032;4.314;2023-05-23T14:43:46;16.40;1.00
18160;DHT22;9205;52.032;4.314;2023-05-23T14:46:13;16.10;1.00
18160;DHT22;9205;52.032;4.314;2023-05-23T14:48:42;15.90;1.00
18160;DHT22;9205;52.032;4.314;2023-05-23T14:51:10;16.10;1.00
18160;DHT22;9205;52.032;4.314;2023-05-23T14:53:39;16.10;1.00
18160;DHT22;9205;52.032;4.314;2023-05-23T14:56:06;16.20;1.00
18160;DHT22;9205;52.032;4.314;2023-05-23T14:58:33;16.30;1.00
18160;DHT22;9205;52.032;4.314;2023-05-23T15:01:01;16.40;1.00
18160;DHT22;9205;52.032;4.314;2023-05-23T15:03:29;16.60;1.00
18160;DHT22;9205;52.032;4.314;2023-05-23T15:05:56;16.60;1.00
18160;DHT22;9205;52.032;4.314;2023-05-23T15:08:24;16.90;1.00
18160;DHT22;9205;52.032;4.314;2023-05-23T15:10:53;16.80;1.00
18160;DHT22;9205;52.032;4.314;2023-05-23T15:13:20;16.70;1.00
18160;DHT22;9205;52.032;4.314;2023-05-23T15:15:47;16.80;1.00
18160;DHT22;9205;52.032;4.314;2023-05-23T15:18:15;16.90;1.00
18160;DHT22;9205;52.032;4.314;2023-05-23T15:20:42;16.80;1.00
18160;DHT22;9205;52.032;4.314;2023-05-23T15:23:09;16.70;1.00
18160;DHT22;9205;52.032;4.314;2023-05-23T15:25:37;16.90;1.00
18160;DHT22;9205;52.032;4.314;2023-05-23T15:28:05;16.90;1.00
18160;DHT22;9205;52.032;4.314;2023-05-23T15:30:34;16.80;1.00
18160;DHT22;9205;52.032;4.314;2023-05-23T15:33:02;16.40;1.00
18160;DHT22;9205;52.032;4.314;2023-05-23T15:35:33;16.40;1.00
18160;DHT22;9205;52.032;4.314;2023-05-23T15:38:00;16.30;1.00
18160;DHT22;9205;52.032;4.314;2023-05-23T15:40:27;16.30;1.00
18160;DHT22;9205;52.032;4.314;2023-05-23T15:42:54;16.30;1.00
18160;DHT22;9205;52.032;4.314;2023-05-23T15:45:23;16.40;1.00
18160;DHT22;9205;52.032;4.314;2023-05-23T15:47:50;16.20;1.00
18160;DHT22;9205;52.032;4.314;2023-05-23T15:50:17;16.30;1.00
18160;DHT22;9205;52.032;4.314;2023-05-23T15:52:45;16.30;1.00
18160;DHT22;9205;52.032;4.314;2023-05-23T15:55:12;16.20;1.00
18160;DHT22;9205;52.032;4.314;2023-05-23T15:57:40;16.30;1.00
18160;DHT22;9205;52.032;4.314;2023-05-23T16:00:08;16.40;1.00
18160;DHT22;9205;52.032;4.314;2023-05-23T16:02:41;16.20;1.00
18160;DHT22;9205;52.032;4.314;2023-05-23T16:05:08;16.10;1.00
18160;DHT22;9205;52.032;4.314;2023-05-23T16:07:35;16.30;1.00
18160;DHT22;9205;52.032;4.314;2023-05-23T16:10:03;16.20;1.00
18160;DHT22;9205;52.032;4.314;2023-05-23T16:12:31;16.20;1.00
18160;DHT22;9205;52.032;4.314;2023-05-23T16:14:58;16.00;1.00